createdAt,value
2023-04-10T00:01:27.899Z,73.53
2023-04-10T00:03:57.810Z,72.90
2023-04-10T00:06:27.953Z,73.38
2023-04-10T00:08:55.694Z,73.47
2023-04-10T00:11:23.385Z,73.40
2023-04-10T00:13:51.254Z,73.34
2023-04-10T00:16:19.158Z,74.38
2023-04-10T00:18:48.477Z,74.49
2023-04-10T00:21:17.334Z,74.45
2023-04-10T00:23:45.408Z,73.91
2023-04-10T00:26:13.156Z,74.81
2023-04-10T00:28:42.441Z,74.99
2023-04-10T00:31:10.688Z,75.24
2023-04-10T00:33:38.476Z,75.70
2023-04-10T00:36:08.240Z,76.05
2023-04-10T00:38:37.512Z,75.78
2023-04-10T00:41:06.355Z,76.21
2023-04-10T00:43:34.145Z,76.54
2023-04-10T00:46:02.111Z,75.69
2023-04-10T00:48:30.527Z,76.03
2023-04-10T00:50:58.822Z,76.70
2023-04-10T00:53:28.385Z,76.35
2023-04-10T00:55:57.522Z,76.60
2023-04-10T00:58:26.796Z,76.72
2023-04-10T01:00:54.912Z,76.90
2023-04-10T01:03:24.000Z,78.05
2023-04-10T01:06:01.953Z,77.18
2023-04-10T01:08:40.636Z,77.17
2023-04-10T01:11:14.572Z,77.55
2023-04-10T01:13:48.490Z,77.47
2023-04-10T01:16:20.715Z,77.71
2023-04-10T01:18:54.995Z,77.81
2023-04-10T01:21:24.717Z,77.85
2023-04-10T01:24:13.929Z,78.09
2023-04-10T01:26:57.484Z,77.77
2023-04-10T01:29:30.459Z,77.89
2023-04-10T01:32:04.627Z,78.36
2023-04-10T01:34:37.672Z,78.10
2023-04-10T01:37:07.763Z,78.70
2023-04-10T01:39:38.933Z,78.40
2023-04-10T01:42:08.402Z,77.66
2023-04-10T01:44:47.349Z,77.88
2023-04-10T01:47:17.883Z,76.73
2023-04-10T01:49:48.692Z,77.54
2023-04-10T01:52:18.360Z,78.43
2023-04-10T01:54:52.752Z,77.81
2023-04-10T01:57:26.823Z,77.85
2023-04-10T01:59:59.396Z,78.60
2023-04-10T02:02:32.125Z,78.87
2023-04-10T02:05:00.219Z,78.90
2023-04-10T02:07:47.432Z,79.16
2023-04-10T02:10:23.366Z,79.01
2023-04-10T02:12:56.542Z,79.22
2023-04-10T02:15:28.529Z,78.79
2023-04-10T02:17:59.884Z,78.87
2023-04-10T02:20:28.137Z,78.63
2023-04-10T02:22:58.123Z,79.59
2023-04-10T02:25:26.114Z,79.15
2023-04-10T02:27:53.915Z,79.18
2023-04-10T02:30:22.114Z,80.31
2023-04-10T02:32:51.850Z,79.85
2023-04-10T02:35:20.257Z,79.92
2023-04-10T02:37:48.895Z,79.68
2023-04-10T02:40:17.091Z,79.64
2023-04-10T02:42:55.238Z,80.42
2023-04-10T02:45:23.077Z,80.25
2023-04-10T02:47:52.236Z,80.06
2023-04-10T02:50:21.491Z,79.77
2023-04-10T02:52:49.373Z,80.04
2023-04-10T02:55:17.192Z,80.21
2023-04-10T02:57:45.046Z,80.23
2023-04-10T03:00:14.110Z,79.83
2023-04-10T03:03:06.821Z,80.53
2023-04-10T03:05:42.946Z,80.01
2023-04-10T03:08:11.151Z,80.82
2023-04-10T03:10:38.861Z,80.42
2023-04-10T03:13:06.659Z,80.73
2023-04-10T03:15:34.554Z,80.60
2023-04-10T03:18:02.402Z,80.50
2023-04-10T03:20:32.197Z,81.24
2023-04-10T03:23:00.626Z,81.05
2023-04-10T03:25:28.728Z,80.71
2023-04-10T03:27:57.391Z,80.79
2023-04-10T03:30:25.526Z,80.50
2023-04-10T03:32:53.908Z,80.98
2023-04-10T03:35:21.963Z,80.94
2023-04-10T03:37:51.035Z,80.87
2023-04-10T03:40:18.885Z,81.19
2023-04-10T03:42:46.762Z,80.99
2023-04-10T03:45:15.384Z,81.89
2023-04-10T03:47:43.360Z,81.60
2023-04-10T03:50:14.065Z,80.65
2023-04-10T03:52:49.808Z,81.67
2023-04-10T03:55:21.331Z,81.83
2023-04-10T03:57:51.085Z,81.36
2023-04-10T04:00:21.972Z,81.32
2023-04-10T04:02:50.486Z,81.76
2023-04-10T04:05:42.834Z,82.04
2023-04-10T04:08:25.757Z,81.89
2023-04-10T04:11:24.742Z,81.82
2023-04-10T04:14:02.121Z,81.61
2023-04-10T04:16:44.578Z,81.27
2023-04-10T04:19:31.024Z,82.32
2023-04-10T04:22:13.058Z,82.05
2023-04-10T04:24:59.732Z,81.06
2023-04-10T04:27:51.658Z,80.65
2023-04-10T04:30:42.522Z,80.98
2023-04-10T04:33:36.313Z,81.59
2023-04-10T04:36:12.547Z,81.19
2023-04-10T04:38:43.408Z,81.83
2023-04-10T04:41:25.442Z,81.47
2023-04-10T04:44:01.122Z,81.77
2023-04-10T04:46:47.139Z,81.64
2023-04-10T04:49:33.951Z,81.72
2023-04-10T04:52:28.315Z,82.00
2023-04-10T04:55:06.779Z,82.22
2023-04-10T04:57:54.546Z,82.43
2023-04-10T05:00:56.869Z,82.34
2023-04-10T05:03:51.068Z,81.95
2023-04-10T05:06:24.904Z,82.09
2023-04-10T05:09:12.182Z,81.40
2023-04-10T05:12:03.883Z,81.52
2023-04-10T05:14:57.826Z,81.66
2023-04-10T05:17:39.972Z,81.12
2023-04-10T05:20:27.202Z,82.40
2023-04-10T05:23:11.485Z,82.26
2023-04-10T05:25:57.692Z,82.17
2023-04-10T05:28:57.618Z,81.67
2023-04-10T05:31:44.169Z,81.96
2023-04-10T05:34:20.586Z,81.94
2023-04-10T05:37:06.983Z,82.00
2023-04-10T05:39:46.114Z,82.27
2023-04-10T05:42:32.450Z,81.43
2023-04-10T05:45:12.246Z,81.48
2023-04-10T05:47:54.725Z,82.19
2023-04-10T05:50:37.525Z,81.60
2023-04-10T05:53:31.248Z,81.32
2023-04-10T05:56:15.281Z,80.06
2023-04-10T05:59:04.138Z,81.01
2023-04-10T06:02:01.711Z,80.41
2023-04-10T06:04:29.984Z,80.64
2023-04-10T06:07:02.261Z,80.22
2023-04-10T06:09:33.553Z,80.38
2023-04-10T06:12:01.797Z,79.31
2023-04-10T06:14:29.863Z,79.32
2023-04-10T06:16:58.990Z,78.26
2023-04-10T06:19:27.099Z,79.32
2023-04-10T06:21:55.277Z,78.96
2023-04-10T06:24:25.427Z,78.56
2023-04-10T06:26:53.295Z,78.47
2023-04-10T06:29:21.217Z,78.20
2023-04-10T06:31:49.730Z,77.15
2023-04-10T06:34:17.778Z,77.73
2023-04-10T06:36:56.133Z,78.77
2023-04-10T06:39:26.099Z,78.41
2023-04-10T06:41:54.099Z,78.63
2023-04-10T06:44:32.950Z,78.05
2023-04-10T06:47:00.853Z,78.02
2023-04-10T06:49:28.711Z,78.00
2023-04-10T06:51:56.469Z,78.06
2023-04-10T06:54:25.641Z,76.94
2023-04-10T06:56:58.617Z,75.73
2023-04-10T06:59:26.425Z,75.13
2023-04-10T07:01:54.198Z,74.57
2023-04-10T07:04:22.037Z,74.09
2023-04-10T07:06:50.147Z,73.97
2023-04-10T07:09:18.220Z,71.76
2023-04-10T07:11:47.500Z,71.56
2023-04-10T07:14:15.252Z,70.00
2023-04-10T07:16:43.115Z,71.11
2023-04-10T07:19:11.187Z,69.80
2023-04-10T07:21:38.961Z,69.59
2023-04-10T07:24:07.096Z,69.36
2023-04-10T07:26:34.963Z,68.46
2023-04-10T07:29:04.248Z,67.14
2023-04-10T07:31:32.175Z,67.18
2023-04-10T07:33:59.921Z,67.13
2023-04-10T07:36:27.988Z,64.94
2023-04-10T07:38:56.533Z,65.26
2023-04-10T07:41:24.733Z,65.05
2023-04-10T07:43:52.416Z,63.80
2023-04-10T07:46:21.666Z,62.09
2023-04-10T07:48:49.553Z,60.69
2023-04-10T07:51:17.399Z,57.48
2023-04-10T07:53:45.169Z,57.32
2023-04-10T07:56:17.176Z,57.07
2023-04-10T07:58:45.071Z,56.77
2023-04-10T08:01:13.115Z,56.43
2023-04-10T08:03:44.361Z,55.55
2023-04-10T08:06:12.994Z,54.40
2023-04-10T08:08:42.946Z,54.17
2023-04-10T08:11:25.181Z,53.78
2023-04-10T08:13:53.255Z,52.65
2023-04-10T08:16:24.627Z,51.09
2023-04-10T08:18:54.169Z,51.17
2023-04-10T08:21:23.125Z,51.50
2023-04-10T08:23:51.742Z,49.79
2023-04-10T08:26:20.031Z,49.82
2023-04-10T08:28:50.066Z,48.99
2023-04-10T08:31:18.257Z,48.24
2023-04-10T08:33:46.237Z,48.33
2023-04-10T08:36:18.361Z,48.18
2023-04-10T08:38:49.000Z,47.57
2023-04-10T08:41:18.230Z,47.64
2023-04-10T08:43:46.711Z,48.52
2023-04-10T08:46:15.556Z,48.06
2023-04-10T08:48:48.670Z,47.59
2023-04-10T08:51:26.290Z,47.50
2023-04-10T08:54:06.385Z,47.03
2023-04-10T08:56:35.928Z,47.28
2023-04-10T08:59:04.471Z,46.74
2023-04-10T09:01:32.385Z,45.95
2023-04-10T09:04:01.033Z,47.14
2023-04-10T09:06:32.061Z,47.87
2023-04-10T09:12:01.407Z,46.71
2023-04-10T09:14:31.354Z,47.62
2023-04-10T09:17:14.552Z,47.21
2023-04-10T09:19:42.598Z,45.51
2023-04-10T09:22:12.021Z,44.36
2023-04-10T09:24:41.959Z,45.58
2023-04-10T09:27:10.447Z,45.33
2023-04-10T09:29:43.981Z,44.11
2023-04-10T09:32:12.374Z,43.82
2023-04-10T09:35:05.760Z,43.06
2023-04-10T09:37:35.617Z,43.57
2023-04-10T09:40:04.141Z,43.21
2023-04-10T09:42:33.612Z,43.45
2023-04-10T09:45:02.357Z,43.46
2023-04-10T09:47:30.891Z,43.08
2023-04-10T09:50:00.717Z,42.15
2023-04-10T09:52:32.331Z,42.63
2023-04-10T09:55:04.121Z,42.19
2023-04-10T09:57:34.215Z,41.48
2023-04-10T10:00:04.169Z,39.76
2023-04-10T10:02:39.827Z,41.26
2023-04-10T10:05:09.109Z,39.81
2023-04-10T10:07:37.701Z,40.06
2023-04-10T10:10:08.970Z,39.68
2023-04-10T10:12:44.549Z,41.39
2023-04-10T10:15:17.764Z,41.31
2023-04-10T10:17:52.488Z,42.55
2023-04-10T10:20:23.492Z,39.46
2023-04-10T10:22:51.784Z,40.68
2023-04-10T10:25:21.315Z,38.86
2023-04-10T10:27:52.426Z,40.65
2023-04-10T10:32:53.785Z,39.28
2023-04-10T10:35:23.040Z,39.05
2023-04-10T10:37:52.456Z,37.57
2023-04-10T10:40:29.965Z,36.80
2023-04-10T10:43:22.909Z,38.13
2023-04-10T10:45:58.029Z,37.63
2023-04-10T10:48:26.073Z,38.94
2023-04-10T10:50:57.424Z,38.50
2023-04-10T10:53:36.275Z,36.73
2023-04-10T10:56:37.078Z,34.08
2023-04-10T10:59:05.282Z,34.53
2023-04-10T11:01:33.450Z,34.40
2023-04-10T11:04:02.332Z,32.40
2023-04-10T11:06:53.108Z,33.76
2023-04-10T11:09:49.414Z,34.92
2023-04-10T11:12:21.408Z,34.49
2023-04-10T11:14:59.445Z,34.51
2023-04-10T11:17:49.794Z,34.39
2023-04-10T11:20:18.321Z,34.71
2023-04-10T11:23:08.571Z,35.91
2023-04-10T11:25:51.451Z,34.32
2023-04-10T11:28:47.781Z,33.94
2023-04-10T11:31:18.643Z,34.61
2023-04-10T11:33:47.120Z,34.36
2023-04-10T11:36:17.540Z,35.00
2023-04-10T11:39:05.735Z,33.57
2023-04-10T11:41:35.676Z,34.16
2023-04-10T11:44:07.953Z,34.44
2023-04-10T11:46:38.347Z,34.22
2023-04-10T11:49:07.969Z,34.54
2023-04-10T11:51:36.336Z,33.11
2023-04-10T11:54:08.984Z,32.13
2023-04-10T11:56:37.865Z,32.55
2023-04-10T11:59:10.555Z,30.71
2023-04-10T12:01:41.105Z,34.22
2023-04-10T12:04:16.439Z,30.34
2023-04-10T12:06:46.119Z,29.57
2023-04-10T12:09:15.742Z,29.92
2023-04-10T12:11:51.472Z,30.58
2023-04-10T12:14:21.614Z,30.45
2023-04-10T12:16:50.203Z,31.44
2023-04-10T12:19:18.994Z,30.30
2023-04-10T12:21:47.072Z,28.15
2023-04-10T12:24:34.967Z,28.29
2023-04-10T12:27:02.929Z,28.96
2023-04-10T12:29:32.267Z,29.00
2023-04-10T12:32:08.942Z,30.23
2023-04-10T12:34:38.550Z,29.42
2023-04-10T12:37:07.056Z,31.20
2023-04-10T12:39:34.918Z,30.65
2023-04-10T12:42:13.502Z,30.59
2023-04-10T12:44:56.868Z,30.63
2023-04-10T12:47:25.909Z,31.33
2023-04-10T12:50:06.481Z,27.39
2023-04-10T12:52:35.871Z,28.54
2023-04-10T12:55:14.661Z,27.63
2023-04-10T12:57:43.608Z,27.70
2023-04-10T13:00:16.145Z,28.24
2023-04-10T13:02:44.790Z,29.50
2023-04-10T13:05:13.516Z,28.02
2023-04-10T13:07:44.501Z,29.05
2023-04-10T13:10:12.465Z,28.03
2023-04-10T13:12:42.068Z,28.80
2023-04-10T13:15:11.504Z,28.27
2023-04-10T13:17:41.857Z,28.43
2023-04-10T13:20:12.283Z,29.26
2023-04-10T13:22:40.297Z,28.55
2023-04-10T13:25:10.283Z,29.35
2023-04-10T13:27:38.084Z,29.13
2023-04-10T13:30:07.113Z,29.21
2023-04-10T13:32:35.223Z,29.68
2023-04-10T13:35:04.941Z,28.31
2023-04-10T13:37:32.898Z,29.16
2023-04-10T13:40:00.771Z,29.30
2023-04-10T13:42:28.885Z,29.57
2023-04-10T13:44:56.872Z,29.60
2023-04-10T13:47:24.759Z,29.85
2023-04-10T13:49:52.632Z,28.71
2023-04-10T13:52:21.989Z,28.03
2023-04-10T13:54:49.879Z,28.50
2023-04-10T13:57:17.780Z,28.76
2023-04-10T13:59:45.726Z,28.94
2023-04-10T14:02:13.793Z,27.24
2023-04-10T14:04:42.692Z,28.46
2023-04-10T14:07:11.849Z,29.27
2023-04-10T14:09:41.184Z,29.14
2023-04-10T14:12:09.101Z,28.76
2023-04-10T14:14:37.860Z,29.20
2023-04-10T14:17:06.379Z,29.26
2023-04-10T14:19:36.152Z,28.05
2023-04-10T14:22:04.303Z,28.84
2023-04-10T14:24:32.169Z,28.38
2023-04-10T14:27:01.906Z,28.58
2023-04-10T14:29:37.376Z,28.63
2023-04-10T14:32:07.388Z,27.57
2023-04-10T14:34:35.310Z,29.83
2023-04-10T14:37:03.514Z,27.67
2023-04-10T14:39:31.489Z,28.70
2023-04-10T14:41:59.326Z,27.56
2023-04-10T14:44:28.578Z,28.75
2023-04-10T14:46:56.562Z,28.00
2023-04-10T14:49:24.468Z,28.47
2023-04-10T14:51:52.763Z,28.12
2023-04-10T14:54:21.850Z,28.02
2023-04-10T14:56:50.401Z,28.28
2023-04-10T14:59:18.873Z,28.63
2023-04-10T15:01:48.363Z,28.49
2023-04-10T15:04:16.542Z,28.98
2023-04-10T15:06:44.405Z,28.91
2023-04-10T15:09:12.473Z,30.12
2023-04-10T15:11:40.406Z,30.30
2023-04-10T15:14:08.756Z,30.85
2023-04-10T15:16:36.684Z,28.83
2023-04-10T15:19:06.071Z,30.14
2023-04-10T15:21:34.299Z,30.22
2023-04-10T15:24:02.275Z,30.62
2023-04-10T15:26:30.217Z,30.74
2023-04-10T15:28:58.626Z,30.31
2023-04-10T15:31:26.673Z,30.15
2023-04-10T15:33:54.856Z,29.81
2023-04-10T15:36:24.301Z,30.14
2023-04-10T15:38:52.218Z,30.87
2023-04-10T15:41:20.616Z,29.91
2023-04-10T15:43:49.578Z,30.72
2023-04-10T15:46:19.139Z,31.02
2023-04-10T15:48:47.353Z,30.59
2023-04-10T15:51:15.611Z,30.74
2023-04-10T15:53:45.186Z,30.09
2023-04-10T15:56:16.014Z,29.13
2023-04-10T15:58:43.912Z,30.67
2023-04-10T16:01:12.115Z,30.52
2023-04-10T16:03:40.544Z,29.70
2023-04-10T16:06:09.636Z,30.00
2023-04-10T16:08:37.768Z,30.37
2023-04-10T16:11:07.712Z,29.35
2023-04-10T16:13:35.650Z,29.64
2023-04-10T16:16:04.590Z,30.06
2023-04-10T16:18:32.601Z,29.55
2023-04-10T16:21:00.864Z,29.49
2023-04-10T16:23:28.789Z,29.94
2023-04-10T16:25:57.234Z,29.67
2023-04-10T16:28:28.168Z,29.34
2023-04-10T16:30:56.835Z,29.72
2023-04-10T16:33:24.941Z,29.76
2023-04-10T16:35:53.831Z,29.44
2023-04-10T16:38:21.733Z,30.10
2023-04-10T16:40:49.609Z,29.79
2023-04-10T16:43:17.654Z,30.41
2023-04-10T16:45:46.916Z,30.23
2023-04-10T16:48:14.709Z,30.43
2023-04-10T16:50:42.631Z,29.86
2023-04-10T16:53:10.570Z,30.73
2023-04-10T16:55:38.468Z,30.97
2023-04-10T16:58:06.554Z,30.95
2023-04-10T17:00:36.784Z,32.12
2023-04-10T17:03:06.906Z,32.66
2023-04-10T17:05:36.892Z,31.81
2023-04-10T17:08:05.314Z,31.47
2023-04-10T17:10:33.474Z,32.23
2023-04-10T17:13:06.794Z,31.71
2023-04-10T17:15:34.803Z,32.42
2023-04-10T17:18:02.904Z,32.84
2023-04-10T17:20:36.702Z,33.20
2023-04-10T17:23:06.743Z,33.22
2023-04-10T17:25:34.857Z,33.64
2023-04-10T17:28:02.770Z,33.78
2023-04-10T17:30:30.802Z,33.47
2023-04-10T17:33:00.010Z,34.21
2023-04-10T17:35:27.920Z,34.13
2023-04-10T17:37:57.309Z,35.15
2023-04-10T17:40:25.138Z,34.99
2023-04-10T17:42:53.248Z,35.51
2023-04-10T17:45:22.150Z,35.01
2023-04-10T17:47:50.143Z,35.87
2023-04-10T17:50:18.351Z,36.25
2023-04-10T17:52:46.483Z,36.64
2023-04-10T17:55:21.286Z,36.83
2023-04-10T17:57:49.524Z,37.16
2023-04-10T18:00:20.538Z,37.87
2023-04-10T18:02:49.059Z,37.90
2023-04-10T18:05:18.961Z,38.17
2023-04-10T18:07:47.327Z,38.68
2023-04-10T18:10:16.750Z,39.30
2023-04-10T18:12:44.818Z,39.48
2023-04-10T18:15:14.322Z,39.91
2023-04-10T18:17:43.914Z,40.25
2023-04-10T18:20:12.311Z,40.63
2023-04-10T18:22:40.284Z,40.60
2023-04-10T18:25:09.639Z,41.36
2023-04-10T18:27:47.917Z,41.74
2023-04-10T18:30:20.192Z,42.59
2023-04-10T18:32:51.881Z,42.19
2023-04-10T18:35:20.143Z,42.53
2023-04-10T18:37:47.976Z,42.81
2023-04-10T18:40:16.892Z,43.34
2023-04-10T18:42:46.586Z,43.71
2023-04-10T18:45:14.788Z,44.13
2023-04-10T18:47:42.853Z,44.42
2023-04-10T18:50:11.677Z,44.90
2023-04-10T18:52:39.702Z,44.65
2023-04-10T18:55:08.401Z,45.42
2023-04-10T18:57:36.294Z,45.16
2023-04-10T19:00:08.154Z,45.24
2023-04-10T19:02:36.247Z,45.52
2023-04-10T19:05:04.368Z,45.52
2023-04-10T19:07:33.228Z,45.81
2023-04-10T19:10:01.186Z,46.15
2023-04-10T19:12:29.149Z,46.80
2023-04-10T19:14:57.056Z,46.28
2023-04-10T19:17:26.382Z,45.74
2023-04-10T19:19:55.482Z,46.48
2023-04-10T19:22:23.539Z,46.63
2023-04-10T19:24:51.576Z,46.28
2023-04-10T19:27:19.455Z,46.90
2023-04-10T19:29:47.409Z,46.75
2023-04-10T19:32:15.336Z,47.17
2023-04-10T19:34:51.034Z,46.99
2023-04-10T19:37:20.975Z,47.35
2023-04-10T19:39:48.986Z,47.64
2023-04-10T19:42:17.120Z,47.99
2023-04-10T19:44:45.071Z,47.70
2023-04-10T19:47:12.900Z,47.91
2023-04-10T19:49:40.805Z,48.48
2023-04-10T19:52:10.402Z,48.19
2023-04-10T19:54:38.413Z,48.39
2023-04-10T19:57:06.454Z,48.88
2023-04-10T19:59:36.302Z,48.99
2023-04-10T20:02:04.417Z,49.38
2023-04-10T20:04:32.417Z,49.73
2023-04-10T20:07:00.967Z,49.53
2023-04-10T20:09:30.383Z,49.57
2023-04-10T20:11:58.228Z,49.82
2023-04-10T20:14:26.316Z,50.28
2023-04-10T20:16:54.212Z,50.75
2023-04-10T20:19:22.158Z,50.67
2023-04-10T20:21:50.047Z,50.82
2023-04-10T20:24:17.914Z,51.27
2023-04-10T20:26:47.188Z,51.43
2023-04-10T20:29:15.126Z,52.25
2023-04-10T20:31:43.129Z,51.50
2023-04-10T20:34:11.117Z,51.80
2023-04-10T20:36:40.374Z,52.21
2023-04-10T20:39:08.378Z,52.40
2023-04-10T20:41:36.507Z,52.38
2023-04-10T20:44:06.905Z,51.95
2023-04-10T20:46:35.075Z,51.38
2023-04-10T20:49:02.988Z,51.56
2023-04-10T20:51:31.523Z,51.91
2023-04-10T20:53:59.412Z,52.66
2023-04-10T20:56:36.702Z,51.41
2023-04-10T20:59:12.374Z,51.98
2023-04-10T21:01:40.526Z,52.53
2023-04-10T21:04:08.580Z,52.54
2023-04-10T21:06:36.524Z,52.14
2023-04-10T21:09:04.631Z,51.94
2023-04-10T21:11:32.986Z,52.56
2023-04-10T21:14:00.933Z,51.95
2023-04-10T21:16:31.461Z,51.78
2023-04-10T21:18:59.362Z,51.57
2023-04-10T21:21:28.078Z,51.53
2023-04-10T21:23:56.091Z,51.15
2023-04-10T21:26:23.945Z,51.42
2023-04-10T21:28:51.905Z,51.26
2023-04-10T21:31:19.792Z,51.57
2023-04-10T21:33:49.544Z,51.24
2023-04-10T21:36:17.699Z,51.48
2023-04-10T21:38:45.652Z,51.53
2023-04-10T21:41:13.649Z,51.83
2023-04-10T21:43:43.093Z,51.51
2023-04-10T21:46:11.276Z,51.77
2023-04-10T21:48:39.670Z,52.35
2023-04-10T21:51:09.207Z,52.14
2023-04-10T21:53:37.164Z,51.79
2023-04-10T21:56:05.642Z,51.56
2023-04-10T21:58:33.950Z,52.16
2023-04-10T22:01:02.311Z,52.35
2023-04-10T22:03:30.981Z,52.79
2023-04-10T22:05:58.990Z,52.67
2023-04-10T22:08:28.326Z,52.41
2023-04-10T22:10:56.352Z,53.26
2023-04-10T22:13:30.741Z,52.62
2023-04-10T22:15:59.267Z,52.18
2023-04-10T22:18:27.188Z,53.23
2023-04-10T22:20:55.221Z,52.88
2023-04-10T22:23:23.255Z,52.94
2023-04-10T22:25:52.506Z,53.27
2023-04-10T22:28:20.526Z,53.79
2023-04-10T22:30:48.484Z,53.78
2023-04-10T22:33:16.470Z,54.20
2023-04-10T22:35:44.884Z,54.32
2023-04-10T22:38:13.253Z,54.68
2023-04-10T22:40:41.176Z,55.21
2023-04-10T22:43:11.017Z,55.88
2023-04-10T22:45:40.816Z,55.67
2023-04-10T22:48:08.885Z,55.47
2023-04-10T22:50:37.460Z,55.56
2023-04-10T22:53:05.649Z,55.44
2023-04-10T22:55:34.824Z,55.27
2023-04-10T22:58:02.669Z,55.11
2023-04-10T23:00:34.036Z,55.98
2023-04-10T23:03:02.222Z,56.42
2023-04-10T23:05:30.407Z,56.69
2023-04-10T23:07:59.427Z,56.56
2023-04-10T23:10:27.398Z,56.98
2023-04-10T23:12:55.348Z,57.04
2023-04-10T23:15:23.245Z,57.13
2023-04-10T23:17:52.779Z,58.25
2023-04-10T23:20:20.943Z,58.52
2023-04-10T23:22:48.897Z,58.86
2023-04-10T23:25:16.739Z,58.97
2023-04-10T23:27:44.611Z,58.83
2023-04-10T23:30:12.800Z,58.38
2023-04-10T23:32:40.803Z,58.29
2023-04-10T23:35:10.811Z,58.09
2023-04-10T23:37:38.702Z,57.58
2023-04-10T23:40:07.866Z,57.45
2023-04-10T23:42:35.751Z,57.54
2023-04-10T23:45:03.707Z,57.46
2023-04-10T23:47:31.594Z,58.40
2023-04-10T23:49:59.539Z,57.79
2023-04-10T23:52:29.303Z,58.39
2023-04-10T23:54:57.301Z,57.77
2023-04-10T23:57:27.782Z,58.14
2023-04-10T23:59:55.643Z,58.05
